Time;durP1;ratioP1;P1;durP2;ratioP2;P2;SDS_P1;SDS_P2;PMS_P1;PMS_P2;Temp;Humidity;BMP_temperature;BMP_pressure;BME280_temperature;BME280_humidity;BME280_pressure;Samples;Min_cycle;Max_cycle;Signal;HPM_P1;HPM_P2
2023/12/18 00:00:48;;;;;;;35.45;21.15;;;7.90;99.90;;;;;;4981302;28;20058;-72
2023/12/18 00:03:13;;;;;;;31.77;21.17;;;7.90;99.90;;;;;;4979036;28;20179;-72
2023/12/18 00:05:40;;;;;;;36.97;21.65;;;7.90;99.90;;;;;;4978730;28;20148;-72
2023/12/18 00:08:06;;;;;;;36.10;20.85;;;7.90;99.90;;;;;;5015558;28;20206;-73
2023/12/18 00:10:32;;;;;;;32.45;20.65;;;7.90;99.90;;;;;;4979017;28;20039;-72
2023/12/18 00:12:57;;;;;;;31.60;21.08;;;7.90;99.90;;;;;;4983856;28;20049;-72
2023/12/18 00:15:23;;;;;;;39.60;22.05;;;7.90;99.90;;;;;;4978744;28;20725;-72
2023/12/18 00:17:49;;;;;;;33.10;21.05;;;7.90;99.90;;;;;;4982381;28;20050;-72
2023/12/18 00:20:14;;;;;;;29.02;21.42;;;7.90;99.90;;;;;;4980668;28;20077;-72
2023/12/18 00:22:40;;;;;;;31.73;22.27;;;7.90;99.90;;;;;;4978423;28;20035;-72
2023/12/18 00:25:06;;;;;;;31.70;21.38;;;7.90;99.90;;;;;;4978816;28;20093;-72
2023/12/18 00:27:32;;;;;;;34.45;22.95;;;7.90;99.90;;;;;;4980011;28;20073;-72
2023/12/18 00:29:58;;;;;;;29.25;21.88;;;7.90;99.90;;;;;;4977124;28;20486;-71
2023/12/18 00:32:23;;;;;;;30.05;22.58;;;7.90;99.90;;;;;;4980242;28;20053;-72
2023/12/18 00:34:49;;;;;;;34.60;22.33;;;7.90;99.90;;;;;;4979351;28;20046;-72
2023/12/18 00:37:15;;;;;;;32.13;22.33;;;7.90;99.90;;;;;;4994047;28;20100;-72
2023/12/18 00:39:40;;;;;;;33.70;21.50;;;7.80;99.90;;;;;;4994477;28;20053;-72
2023/12/18 00:42:06;;;;;;;40.17;21.90;;;7.90;99.90;;;;;;4966629;28;20520;-71
2023/12/18 00:44:32;;;;;;;31.48;21.23;;;7.90;99.90;;;;;;4974812;28;20050;-72
2023/12/18 00:46:58;;;;;;;31.63;22.27;;;7.90;99.90;;;;;;4966419;28;20119;-72
2023/12/18 00:49:27;;;;;;;29.45;20.45;;;7.80;99.90;;;;;;4981999;28;20101;-72
2023/12/18 00:51:53;;;;;;;32.95;23.23;;;7.80;99.90;;;;;;4964133;28;20121;-74
2023/12/18 00:54:19;;;;;;;30.73;22.05;;;7.80;99.90;;;;;;5010054;28;20126;-72
2023/12/18 00:56:45;;;;;;;31.92;22.33;;;7.90;99.90;;;;;;4983389;28;20077;-72
2023/12/18 00:59:11;;;;;;;30.00;21.38;;;7.90;99.90;;;;;;4961957;28;20031;-72
2023/12/18 01:01:38;;;;;;;33.72;21.83;;;7.90;99.90;;;;;;4965048;28;20042;-72
2023/12/18 01:04:03;;;;;;;32.00;21.55;;;7.90;99.90;;;;;;4980519;28;20077;-71
2023/12/18 01:06:29;;;;;;;32.75;22.02;;;7.90;99.90;;;;;;5008378;28;20047;-72
2023/12/18 01:08:58;;;;;;;29.50;21.90;;;7.90;99.90;;;;;;4961190;28;20066;-72
2023/12/18 01:11:24;;;;;;;29.73;22.33;;;7.90;99.90;;;;;;4968735;28;20039;-72
2023/12/18 01:13:49;;;;;;;30.33;20.80;;;7.90;99.90;;;;;;4979178;28;20046;-72
2023/12/18 01:16:15;;;;;;;32.45;22.25;;;7.90;99.90;;;;;;4980003;28;20065;-72
2023/12/18 01:18:41;;;;;;;34.55;22.40;;;7.90;99.90;;;;;;4977931;28;20047;-72
2023/12/18 01:21:06;;;;;;;30.70;21.77;;;7.90;99.90;;;;;;4962479;28;20031;-72
2023/12/18 01:23:32;;;;;;;33.40;21.42;;;7.90;99.90;;;;;;5010185;28;20043;-72
2023/12/18 01:25:58;;;;;;;31.63;21.70;;;7.90;99.90;;;;;;4999104;28;20125;-72
2023/12/18 01:28:24;;;;;;;30.52;22.00;;;7.90;99.90;;;;;;4974356;28;20092;-72
2023/12/18 01:30:50;;;;;;;31.45;21.48;;;7.90;99.90;;;;;;4962991;28;21219;-72
2023/12/18 01:33:15;;;;;;;29.80;21.20;;;7.90;99.90;;;;;;4975079;28;20048;-72
2023/12/18 01:35:41;;;;;;;30.15;21.35;;;8.00;99.90;;;;;;4971784;28;20070;-72
2023/12/18 01:38:09;;;;;;;35.53;20.65;;;8.00;99.90;;;;;;4979650;28;20494;-73
2023/12/18 01:40:35;;;;;;;25.60;19.80;;;8.00;99.90;;;;;;4978428;28;20050;-73
2023/12/18 01:43:01;;;;;;;33.53;21.58;;;8.00;99.90;;;;;;4976891;28;20054;-72
2023/12/18 01:45:26;;;;;;;32.13;21.38;;;8.00;99.90;;;;;;4995208;28;20050;-72
2023/12/18 01:47:53;;;;;;;34.28;20.85;;;8.00;99.90;;;;;;4978514;28;20058;-72
2023/12/18 01:50:19;;;;;;;33.90;21.40;;;7.90;99.90;;;;;;4977351;28;20487;-72
2023/12/18 01:52:45;;;;;;;36.22;22.88;;;8.00;99.90;;;;;;4976716;28;20039;-74
2023/12/18 01:55:13;;;;;;;36.25;25.73;;;8.00;99.90;;;;;;4981360;28;20045;-72
2023/12/18 01:57:39;;;;;;;36.45;27.33;;;8.00;99.90;;;;;;4978685;28;20056;-72
2023/12/18 02:00:06;;;;;;;35.42;28.13;;;8.00;99.90;;;;;;4963169;28;20409;-72
2023/12/18 02:02:33;;;;;;;39.88;28.92;;;8.00;99.90;;;;;;4963584;28;20096;-72
2023/12/18 02:04:59;;;;;;;46.05;29.67;;;7.90;99.90;;;;;;4983079;28;20041;-72
2023/12/18 02:07:26;;;;;;;43.88;28.98;;;8.00;99.90;;;;;;4969929;28;20655;-74
2023/12/18 02:09:52;;;;;;;37.28;27.98;;;8.00;99.90;;;;;;4980285;28;20084;-72
2023/12/18 02:12:18;;;;;;;39.55;27.27;;;8.00;99.90;;;;;;4979427;28;20062;-72
2023/12/18 02:14:44;;;;;;;37.63;25.30;;;8.00;99.90;;;;;;4980130;28;20054;-72
2023/12/18 02:17:09;;;;;;;32.50;23.05;;;8.00;99.90;;;;;;4962879;28;20039;-72
2023/12/18 02:19:35;;;;;;;36.55;23.13;;;8.00;99.90;;;;;;4978227;28;20054;-72
2023/12/18 02:22:01;;;;;;;30.15;21.65;;;8.10;99.90;;;;;;4964888;28;20121;-72
2023/12/18 02:24:27;;;;;;;28.20;20.42;;;8.00;99.90;;;;;;4973103;28;20054;-72
2023/12/18 02:26:53;;;;;;;33.03;20.73;;;8.00;99.90;;;;;;4961286;28;20042;-72
2023/12/18 02:29:19;;;;;;;29.90;20.48;;;8.00;99.90;;;;;;4979985;28;20130;-72
2023/12/18 02:31:44;;;;;;;31.88;21.95;;;8.00;99.90;;;;;;5008979;28;20121;-72
2023/12/18 02:34:10;;;;;;;34.53;23.52;;;8.00;99.90;;;;;;4978088;28;20038;-72
2023/12/18 02:36:39;;;;;;;32.58;22.02;;;8.00;99.90;;;;;;4962987;28;20046;-72
2023/12/18 02:39:05;;;;;;;33.75;21.45;;;8.00;99.90;;;;;;4975479;28;20510;-74
2023/12/18 02:41:30;;;;;;;32.45;23.08;;;8.00;99.90;;;;;;4979739;28;20061;-72
2023/12/18 02:43:57;;;;;;;34.65;23.10;;;8.00;99.90;;;;;;4976347;28;20069;-72
2023/12/18 02:46:22;;;;;;;33.55;22.00;;;8.00;99.90;;;;;;4975011;28;20050;-71
2023/12/18 02:48:48;;;;;;;33.55;23.05;;;8.10;99.90;;;;;;4964905;28;20049;-74
2023/12/18 02:51:14;;;;;;;35.97;24.67;;;8.00;99.90;;;;;;4982781;28;20038;-71
2023/12/18 02:53:39;;;;;;;34.25;23.48;;;8.00;99.90;;;;;;4963875;28;20406;-72
2023/12/18 02:56:06;;;;;;;32.42;24.73;;;8.00;99.90;;;;;;4983835;28;20505;-72
2023/12/18 02:58:32;;;;;;;36.22;24.58;;;8.00;99.90;;;;;;4979516;28;20482;-72
2023/12/18 03:00:57;;;;;;;32.10;23.08;;;8.00;99.90;;;;;;4982804;28;20050;-71
2023/12/18 03:03:23;;;;;;;33.03;23.48;;;8.00;99.90;;;;;;4957102;28;20050;-72
2023/12/18 03:05:49;;;;;;;31.55;24.20;;;8.00;99.90;;;;;;4984849;28;21013;-72
2023/12/18 03:08:14;;;;;;;37.22;24.27;;;8.00;99.90;;;;;;4956046;28;20088;-72
2023/12/18 03:10:40;;;;;;;37.50;24.90;;;8.00;99.90;;;;;;4973514;28;20042;-72
2023/12/18 03:13:06;;;;;;;40.05;24.25;;;8.00;99.90;;;;;;4961040;28;20066;-72
2023/12/18 03:15:32;;;;;;;29.95;23.83;;;8.00;99.90;;;;;;5003103;28;20042;-72
2023/12/18 03:17:58;;;;;;;33.22;23.52;;;8.00;99.90;;;;;;4975916;28;20108;-73
2023/12/18 03:20:24;;;;;;;34.55;25.00;;;8.00;99.90;;;;;;4978544;28;20054;-72
2023/12/18 03:22:49;;;;;;;35.95;24.88;;;8.00;99.90;;;;;;5013806;28;20122;-73
2023/12/18 03:25:15;;;;;;;34.63;23.73;;;8.00;99.90;;;;;;4975546;28;20495;-73
2023/12/18 03:27:41;;;;;;;30.63;22.90;;;8.00;99.90;;;;;;4984999;28;20054;-73
2023/12/18 03:30:07;;;;;;;33.50;22.98;;;8.00;99.90;;;;;;5007406;28;20698;-73
2023/12/18 03:32:33;;;;;;;33.22;24.85;;;8.00;99.90;;;;;;5016738;28;20056;-73
2023/12/18 03:34:59;;;;;;;32.15;23.05;;;8.00;99.90;;;;;;4968886;28;20054;-73
2023/12/18 03:37:24;;;;;;;29.92;23.02;;;8.00;99.90;;;;;;4983711;28;20494;-72
2023/12/18 03:39:50;;;;;;;29.80;22.95;;;8.00;99.90;;;;;;4967781;28;20115;-72
2023/12/18 03:42:16;;;;;;;30.83;21.25;;;8.00;99.90;;;;;;4979105;28;20058;-72
2023/12/18 03:44:43;;;;;;;29.17;22.80;;;8.00;99.90;;;;;;4972018;28;20410;-73
2023/12/18 03:47:09;;;;;;;31.17;22.15;;;8.10;99.90;;;;;;5044490;28;20125;-73
2023/12/18 03:49:35;;;;;;;31.52;22.65;;;8.10;99.90;;;;;;5006381;28;20046;-73
2023/12/18 03:52:00;;;;;;;29.98;22.67;;;8.00;99.90;;;;;;4966878;28;20047;-72
2023/12/18 03:54:26;;;;;;;29.60;22.58;;;8.00;99.90;;;;;;4968714;28;20057;-72
2023/12/18 03:56:52;;;;;;;31.15;22.40;;;8.10;99.90;;;;;;4967744;28;20046;-72
2023/12/18 03:59:18;;;;;;;32.05;22.27;;;8.10;99.90;;;;;;5006098;28;20043;-72
2023/12/18 04:01:43;;;;;;;31.02;22.05;;;8.10;99.90;;;;;;4979078;28;20133;-73
2023/12/18 04:04:10;;;;;;;33.25;22.35;;;8.10;99.90;;;;;;4955167;28;20043;-73
2023/12/18 04:06:36;;;;;;;33.55;22.45;;;8.10;99.90;;;;;;4985450;28;20046;-73
2023/12/18 04:09:02;;;;;;;28.50;22.45;;;8.10;99.90;;;;;;4979538;28;20042;-73
2023/12/18 04:11:28;;;;;;;35.42;22.27;;;8.10;99.90;;;;;;4975993;28;20552;-73
2023/12/18 04:13:54;;;;;;;31.83;21.60;;;8.10;99.90;;;;;;5004156;28;20034;-73
2023/12/18 04:16:20;;;;;;;30.88;21.67;;;8.10;99.90;;;;;;5057663;28;20085;-73
2023/12/18 04:18:45;;;;;;;29.27;20.95;;;8.10;99.90;;;;;;4969763;28;20067;-72
2023/12/18 04:21:11;;;;;;;30.08;21.65;;;8.10;99.90;;;;;;5005619;28;20095;-72
2023/12/18 04:23:37;;;;;;;33.10;21.33;;;8.10;99.90;;;;;;4985035;28;20645;-73
2023/12/18 04:26:03;;;;;;;32.42;21.20;;;8.10;99.90;;;;;;5009878;28;20047;-73
2023/12/18 04:28:29;;;;;;;30.30;20.75;;;8.10;99.90;;;;;;5004296;28;20034;-73
2023/12/18 04:30:54;;;;;;;31.75;21.70;;;8.10;99.90;;;;;;5015808;28;20039;-72
2023/12/18 04:33:20;;;;;;;27.02;20.63;;;8.10;99.90;;;;;;5012735;28;20117;-72
2023/12/18 04:35:46;;;;;;;27.20;21.05;;;8.20;99.90;;;;;;4997957;28;20054;-73
2023/12/18 04:38:11;;;;;;;29.60;21.33;;;8.20;99.90;;;;;;4993701;28;20111;-73
2023/12/18 04:40:37;;;;;;;33.00;21.80;;;8.20;99.90;;;;;;5003480;28;20050;-73
2023/12/18 04:43:03;;;;;;;29.23;21.38;;;8.20;99.90;;;;;;4975936;28;20050;-73
2023/12/18 04:45:29;;;;;;;28.95;21.33;;;8.20;99.90;;;;;;4978316;28;20043;-73
2023/12/18 04:47:54;;;;;;;29.27;21.38;;;8.20;99.90;;;;;;5017405;28;20114;-73
2023/12/18 04:50:20;;;;;;;27.13;20.92;;;8.20;99.90;;;;;;4977902;28;20038;-73
2023/12/18 04:52:46;;;;;;;28.75;20.55;;;8.20;99.90;;;;;;4966973;28;20107;-73
2023/12/18 04:55:11;;;;;;;28.25;20.67;;;8.20;99.90;;;;;;4978440;28;20103;-73
2023/12/18 04:57:38;;;;;;;27.52;20.30;;;8.20;99.90;;;;;;4998875;28;20191;-73
2023/12/18 05:00:04;;;;;;;28.92;19.83;;;8.20;99.90;;;;;;5048820;28;20078;-73
2023/12/18 05:02:30;;;;;;;30.35;20.63;;;8.20;99.90;;;;;;4979918;28;20461;-73
2023/12/18 05:04:58;;;;;;;27.23;20.50;;;8.20;99.90;;;;;;4977624;28;20054;-74
2023/12/18 05:07:26;;;;;;;31.98;21.30;;;8.20;99.90;;;;;;4960961;28;20590;-73
2023/12/18 05:09:52;;;;;;;29.75;20.38;;;8.20;99.90;;;;;;4974250;28;20058;-74
2023/12/18 05:12:18;;;;;;;30.73;20.52;;;8.10;99.90;;;;;;4981527;28;20558;-74
2023/12/18 05:14:43;;;;;;;25.55;19.73;;;8.10;99.90;;;;;;5013462;28;20050;-74
2023/12/18 05:17:09;;;;;;;29.80;21.08;;;8.10;99.90;;;;;;4966233;28;20133;-74
2023/12/18 05:19:35;;;;;;;26.70;18.95;;;8.10;99.90;;;;;;4974784;28;20434;-73
2023/12/18 05:22:01;;;;;;;32.67;20.85;;;8.20;99.90;;;;;;4967318;28;20047;-74
2023/12/18 05:24:26;;;;;;;27.67;19.55;;;8.20;99.90;;;;;;5011836;28;20448;-73
2023/12/18 05:26:52;;;;;;;27.45;19.52;;;8.20;99.90;;;;;;5071162;28;20050;-73
2023/12/18 05:29:18;;;;;;;25.13;19.33;;;8.20;99.90;;;;;;4978898;28;20054;-73
2023/12/18 05:31:44;;;;;;;27.90;19.25;;;8.20;99.90;;;;;;5014451;28;20042;-74
2023/12/18 05:34:09;;;;;;;30.15;19.52;;;8.20;99.90;;;;;;4976295;28;20399;-74
2023/12/18 05:36:35;;;;;;;26.95;19.33;;;8.20;99.90;;;;;;4984272;28;20046;-74
2023/12/18 05:39:01;;;;;;;32.58;18.85;;;8.20;99.90;;;;;;4950611;28;20054;-74
2023/12/18 05:41:29;;;;;;;32.58;19.90;;;8.20;99.90;;;;;;4967734;28;20129;-74
2023/12/18 05:43:56;;;;;;;32.85;20.35;;;8.20;99.90;;;;;;4961842;28;20084;-74
2023/12/18 05:46:21;;;;;;;26.02;19.17;;;8.20;99.90;;;;;;5016527;28;20126;-74
2023/12/18 05:48:47;;;;;;;27.20;20.65;;;8.20;99.90;;;;;;4978387;28;20195;-73
2023/12/18 05:51:24;;;;;;;29.05;21.20;;;8.20;99.90;;;;;;4983597;28;20228;-74
2023/12/18 05:53:49;;;;;;;28.90;20.42;;;8.20;99.90;;;;;;5005670;28;20055;-74
2023/12/18 05:56:16;;;;;;;28.38;20.08;;;8.20;99.90;;;;;;4960244;28;20046;-73
2023/12/18 05:58:42;;;;;;;28.35;20.00;;;8.20;99.90;;;;;;4977126;28;20042;-74
2023/12/18 06:01:08;;;;;;;26.88;19.00;;;8.20;99.90;;;;;;4975905;28;20498;-74
2023/12/18 06:03:34;;;;;;;27.92;20.27;;;8.20;99.90;;;;;;4967017;28;20510;-81
2023/12/18 06:06:00;;;;;;;31.75;21.08;;;8.20;99.90;;;;;;4991895;28;20097;-81
2023/12/18 06:08:28;;;;;;;27.27;19.92;;;8.20;99.90;;;;;;4979825;28;20038;-80
2023/12/18 06:10:54;;;;;;;29.08;20.38;;;8.20;99.90;;;;;;4975588;28;20046;-80
2023/12/18 06:13:20;;;;;;;32.25;21.23;;;8.20;99.90;;;;;;4981394;28;20110;-81
2023/12/18 06:15:46;;;;;;;27.52;19.90;;;8.20;99.90;;;;;;4978064;28;20050;-81
2023/12/18 06:18:11;;;;;;;29.55;19.90;;;8.20;99.90;;;;;;4962496;28;20046;-81
2023/12/18 06:20:37;;;;;;;31.88;20.67;;;8.20;99.90;;;;;;4963621;28;20402;-81
2023/12/18 06:23:03;;;;;;;29.20;21.13;;;8.20;99.90;;;;;;4979441;28;20054;-81
2023/12/18 06:25:29;;;;;;;31.10;21.08;;;8.20;99.90;;;;;;4984246;28;20050;-81
2023/12/18 06:27:55;;;;;;;28.33;20.40;;;8.20;99.90;;;;;;4968842;28;20054;-73
2023/12/18 06:30:22;;;;;;;29.70;21.02;;;8.20;99.90;;;;;;4983513;28;20510;-74
2023/12/18 06:32:48;;;;;;;28.50;21.77;;;8.20;99.90;;;;;;4980421;28;20081;-74
2023/12/18 06:35:13;;;;;;;32.67;20.85;;;8.20;99.90;;;;;;4964913;28;20084;-74
2023/12/18 06:37:39;;;;;;;28.60;20.88;;;8.20;99.90;;;;;;4997351;28;20061;-74
2023/12/18 06:40:06;;;;;;;30.35;21.70;;;8.20;99.90;;;;;;4965000;28;20446;-74
2023/12/18 06:42:32;;;;;;;30.15;21.40;;;8.20;99.90;;;;;;4962891;28;20054;-74
2023/12/18 06:44:57;;;;;;;35.33;22.00;;;8.20;99.90;;;;;;4983685;28;20061;-74
2023/12/18 06:47:23;;;;;;;29.88;22.45;;;8.20;99.90;;;;;;4981165;28;20045;-74
2023/12/18 06:49:49;;;;;;;27.67;22.08;;;8.20;99.90;;;;;;4980460;28;20055;-74
2023/12/18 06:52:15;;;;;;;31.20;22.00;;;8.20;99.90;;;;;;4979435;28;20038;-74
2023/12/18 06:54:40;;;;;;;32.35;21.90;;;8.20;99.90;;;;;;4965903;28;20046;-74
2023/12/18 06:57:07;;;;;;;32.30;22.55;;;8.20;99.90;;;;;;4983045;28;20059;-74
2023/12/18 06:59:32;;;;;;;32.90;22.75;;;8.20;99.90;;;;;;4980662;28;20045;-74
2023/12/18 07:01:58;;;;;;;30.15;22.30;;;8.30;99.90;;;;;;4979835;28;20042;-74
2023/12/18 07:04:24;;;;;;;33.60;22.50;;;8.20;99.90;;;;;;4982661;28;20711;-73
2023/12/18 07:06:50;;;;;;;28.38;22.67;;;8.20;99.90;;;;;;4979517;28;20406;-74
2023/12/18 07:09:16;;;;;;;29.52;21.75;;;8.20;99.90;;;;;;4963578;28;20046;-74
2023/12/18 07:11:42;;;;;;;31.98;22.17;;;8.20;99.90;;;;;;4980152;28;20077;-74
2023/12/18 07:14:07;;;;;;;28.95;21.15;;;8.20;99.90;;;;;;4997900;28;20196;-74
2023/12/18 07:16:33;;;;;;;31.15;22.38;;;8.20;99.90;;;;;;4959600;28;20557;-73
2023/12/18 07:18:59;;;;;;;30.63;23.27;;;8.30;99.90;;;;;;4980716;28;20111;-73
2023/12/18 07:21:27;;;;;;;28.83;21.23;;;8.20;99.90;;;;;;4994256;28;20042;-73
2023/12/18 07:23:53;;;;;;;30.30;22.00;;;8.20;99.90;;;;;;4963992;28;20055;-73
2023/12/18 07:26:21;;;;;;;28.58;21.02;;;8.30;99.90;;;;;;4981121;28;20049;-73
2023/12/18 07:28:47;;;;;;;31.10;21.38;;;8.30;99.90;;;;;;4982528;28;20050;-73
2023/12/18 07:31:13;;;;;;;30.35;22.15;;;8.30;99.90;;;;;;4965212;28;20054;-73
2023/12/18 07:33:39;;;;;;;32.05;21.70;;;8.30;99.90;;;;;;4996265;28;20168;-73
2023/12/18 07:36:05;;;;;;;30.33;22.30;;;8.30;99.90;;;;;;4982273;28;20086;-73
2023/12/18 07:38:31;;;;;;;29.52;21.77;;;8.30;99.90;;;;;;4967331;28;20450;-73
2023/12/18 07:40:57;;;;;;;31.70;20.20;;;8.30;99.90;;;;;;4976815;28;20050;-73
2023/12/18 07:43:23;;;;;;;31.00;21.55;;;8.30;99.90;;;;;;4981399;28;20409;-73
2023/12/18 07:45:48;;;;;;;32.15;22.23;;;8.30;99.90;;;;;;4979475;28;20054;-73
2023/12/18 07:48:14;;;;;;;34.70;21.17;;;8.30;99.90;;;;;;4983220;28;20046;-73
2023/12/18 07:50:40;;;;;;;30.85;22.27;;;8.30;99.90;;;;;;4979950;28;20061;-73
2023/12/18 07:53:06;;;;;;;28.63;21.10;;;8.30;99.90;;;;;;4963192;28;20414;-73
2023/12/18 07:55:32;;;;;;;27.88;21.08;;;8.40;99.90;;;;;;4980959;28;20231;-74
2023/12/18 07:57:58;;;;;;;29.98;21.40;;;8.40;99.90;;;;;;4967613;28;20042;-71
2023/12/18 08:00:24;;;;;;;31.27;21.60;;;8.30;99.90;;;;;;4977799;28;20494;-73
2023/12/18 08:02:49;;;;;;;31.50;21.33;;;8.30;99.90;;;;;;4999220;28;20046;-73
2023/12/18 08:05:15;;;;;;;30.13;23.50;;;8.30;99.90;;;;;;4975524;28;20205;-74
2023/12/18 08:07:41;;;;;;;30.23;23.52;;;8.40;99.90;;;;;;4979368;28;20058;-74
2023/12/18 08:10:07;;;;;;;30.77;23.52;;;8.40;99.90;;;;;;4981206;28;20064;-74
2023/12/18 08:12:34;;;;;;;31.17;25.13;;;8.40;99.90;;;;;;4981646;28;20042;-74
2023/12/18 08:14:59;;;;;;;30.52;25.25;;;8.40;99.90;;;;;;4991549;28;20050;-73
2023/12/18 08:17:25;;;;;;;32.08;24.55;;;8.30;99.90;;;;;;5012574;28;20045;-73
2023/12/18 08:19:51;;;;;;;35.25;25.88;;;8.30;99.90;;;;;;5012802;28;20086;-81
2023/12/18 08:22:17;;;;;;;33.83;26.42;;;8.30;99.90;;;;;;5011750;28;20046;-82
2023/12/18 08:24:43;;;;;;;32.38;26.00;;;8.30;99.90;;;;;;4977794;28;20793;-80
2023/12/18 08:27:08;;;;;;;33.58;26.70;;;8.30;99.90;;;;;;4997273;28;20054;-81
2023/12/18 08:29:34;;;;;;;31.60;25.95;;;8.30;99.90;;;;;;5009400;28;20133;-82
2023/12/18 08:32:00;;;;;;;36.45;26.67;;;8.30;99.90;;;;;;4966307;28;20114;-81
2023/12/18 08:34:26;;;;;;;34.15;27.05;;;8.20;99.90;;;;;;5008230;28;20061;-81
2023/12/18 08:36:53;;;;;;;36.20;26.48;;;8.30;99.90;;;;;;4995276;28;20056;-81
2023/12/18 08:39:19;;;;;;;37.95;28.10;;;8.30;99.90;;;;;;4980914;28;20526;-80
2023/12/18 08:41:47;;;;;;;33.63;26.90;;;8.30;99.90;;;;;;4979440;28;20053;-80
2023/12/18 08:44:12;;;;;;;35.05;27.50;;;8.30;99.90;;;;;;4994498;28;20054;-80
2023/12/18 08:46:39;;;;;;;34.15;27.65;;;8.30;99.90;;;;;;4980409;28;20049;-79
2023/12/18 08:49:04;;;;;;;34.22;27.48;;;8.30;99.90;;;;;;4960776;28;20395;-83
2023/12/18 08:51:30;;;;;;;33.45;26.80;;;8.30;99.90;;;;;;4995646;28;20106;-82
2023/12/18 08:53:56;;;;;;;35.97;28.80;;;8.30;99.90;;;;;;4978114;28;20046;-82
2023/12/18 08:56:22;;;;;;;32.78;26.77;;;8.30;99.90;;;;;;4981044;28;20057;-82
2023/12/18 08:58:49;;;;;;;31.30;26.17;;;8.30;99.90;;;;;;4977475;28;20077;-81
2023/12/18 09:01:15;;;;;;;37.10;28.98;;;8.30;99.90;;;;;;4977068;28;20042;-79
2023/12/18 09:03:41;;;;;;;34.30;27.05;;;8.30;99.90;;;;;;4981153;28;20057;-82
2023/12/18 09:06:07;;;;;;;34.75;28.08;;;8.30;99.90;;;;;;4979303;28;20049;-80
2023/12/18 09:08:39;;;;;;;37.53;27.92;;;8.30;99.90;;;;;;4982301;28;20042;-79
2023/12/18 09:11:09;;;;;;;33.08;27.60;;;8.30;99.90;;;;;;4980269;28;20375;-80
2023/12/18 09:13:36;;;;;;;36.50;28.88;;;8.30;99.90;;;;;;4996927;28;20084;-79
2023/12/18 09:16:02;;;;;;;38.22;28.50;;;8.30;99.90;;;;;;4989951;28;20054;-82
2023/12/18 09:18:28;;;;;;;37.53;28.20;;;8.30;99.90;;;;;;4976593;28;20095;-80
2023/12/18 09:20:54;;;;;;;38.05;28.45;;;8.30;99.90;;;;;;4980872;28;20460;-80
2023/12/18 09:23:20;;;;;;;32.90;26.90;;;8.40;99.90;;;;;;5011359;28;20046;-80
2023/12/18 09:25:45;;;;;;;35.25;27.48;;;8.30;99.90;;;;;;4977738;28;20046;-80
2023/12/18 09:28:11;;;;;;;32.83;28.58;;;8.40;99.90;;;;;;4980361;28;20042;-72
2023/12/18 09:30:38;;;;;;;35.20;27.42;;;8.30;99.90;;;;;;4978985;28;20037;-72
2023/12/18 09:33:04;;;;;;;32.95;28.30;;;8.40;99.90;;;;;;5011742;28;20069;-72
2023/12/18 09:35:30;;;;;;;37.03;28.35;;;8.40;99.90;;;;;;4997179;28;20514;-72
2023/12/18 09:37:56;;;;;;;34.40;28.40;;;8.40;99.90;;;;;;4980144;28;20089;-72
2023/12/18 09:40:21;;;;;;;35.50;27.98;;;8.40;99.90;;;;;;4977407;28;20107;-72
2023/12/18 09:42:54;;;;;;;33.83;27.95;;;8.40;99.90;;;;;;4962174;28;20050;-72
2023/12/18 09:45:22;;;;;;;33.08;28.42;;;8.40;99.90;;;;;;5011669;28;20038;-72
2023/12/18 09:47:51;;;;;;;35.92;28.63;;;8.40;99.90;;;;;;4961362;28;20103;-72
2023/12/18 09:50:17;;;;;;;37.90;28.03;;;8.40;99.90;;;;;;4982983;28;20038;-80
2023/12/18 09:53:07;;;;;;;37.60;29.60;;;8.40;99.90;;;;;;5012795;28;20302;-80
2023/12/18 09:55:33;;;;;;;35.80;30.25;;;8.50;99.90;;;;;;4978002;28;20575;-80
2023/12/18 09:58:00;;;;;;;34.25;28.70;;;8.50;99.90;;;;;;4977783;28;20107;-80
2023/12/18 10:00:27;;;;;;;38.42;30.60;;;8.50;99.90;;;;;;4959805;28;20042;-80
2023/12/18 10:02:55;;;;;;;37.03;30.05;;;8.50;99.90;;;;;;4959271;28;20118;-72
2023/12/18 10:05:21;;;;;;;35.00;28.58;;;8.50;99.90;;;;;;4978360;28;20045;-72
2023/12/18 10:07:47;;;;;;;39.28;29.40;;;8.50;99.90;;;;;;4980065;28;20513;-72
2023/12/18 10:10:13;;;;;;;36.20;28.88;;;8.50;99.90;;;;;;4979499;28;20076;-73
2023/12/18 10:12:38;;;;;;;37.88;30.10;;;8.50;99.90;;;;;;4977618;28;20072;-72
2023/12/18 10:15:14;;;;;;;35.70;29.88;;;8.60;99.90;;;;;;4979173;28;20046;-72
2023/12/18 10:17:42;;;;;;;38.22;28.52;;;8.60;99.90;;;;;;4978151;28;20050;-72
2023/12/18 10:20:09;;;;;;;39.50;30.40;;;8.60;99.90;;;;;;4980255;28;20046;-72
2023/12/18 10:22:35;;;;;;;36.03;28.60;;;8.60;99.90;;;;;;4978127;28;20046;-72
2023/12/18 10:25:02;;;;;;;40.30;29.60;;;8.60;99.90;;;;;;4963925;28;20054;-72
2023/12/18 10:27:31;;;;;;;38.05;29.08;;;8.70;99.90;;;;;;4980681;28;20046;-73
2023/12/18 10:29:58;;;;;;;37.58;29.67;;;8.70;99.90;;;;;;4962647;28;20047;-72
2023/12/18 10:32:27;;;;;;;36.90;28.55;;;8.70;99.90;;;;;;4975939;28;20521;-72
2023/12/18 10:34:54;;;;;;;38.90;29.75;;;8.70;99.90;;;;;;4984294;28;20514;-72
2023/12/18 10:37:25;;;;;;;36.78;29.50;;;8.70;99.90;;;;;;4975586;28;20042;-72
2023/12/18 10:39:53;;;;;;;38.58;29.63;;;8.70;99.90;;;;;;4978857;28;20046;-72
2023/12/18 10:42:39;;;;;;;37.83;30.40;;;8.70;99.90;;;;;;4959736;28;20038;-72
2023/12/18 10:45:06;;;;;;;33.47;29.70;;;8.80;99.90;;;;;;4978402;28;20402;-72
2023/12/18 10:47:33;;;;;;;42.03;30.42;;;8.80;99.90;;;;;;4960125;28;20525;-72
2023/12/18 10:50:04;;;;;;;37.13;30.38;;;8.80;99.90;;;;;;4981760;28;20070;-72
2023/12/18 10:52:32;;;;;;;36.00;29.92;;;8.80;99.90;;;;;;4962930;28;20038;-73
2023/12/18 10:55:05;;;;;;;36.78;29.80;;;8.80;99.90;;;;;;4980023;28;20069;-72
2023/12/18 10:57:36;;;;;;;40.28;30.60;;;8.80;99.90;;;;;;4963370;28;20070;-72
2023/12/18 11:00:03;;;;;;;36.30;30.63;;;8.80;99.90;;;;;;4972232;28;20960;-73
2023/12/18 11:02:31;;;;;;;42.20;31.67;;;8.80;99.90;;;;;;4978952;28;20050;-73
2023/12/18 11:04:59;;;;;;;39.72;29.65;;;8.80;99.90;;;;;;4978909;28;20058;-73
2023/12/18 11:07:29;;;;;;;39.72;31.30;;;8.90;99.90;;;;;;4981373;28;20050;-73
2023/12/18 11:09:55;;;;;;;36.25;31.63;;;8.90;99.90;;;;;;4981509;28;20058;-73
2023/12/18 11:12:22;;;;;;;37.05;31.70;;;8.90;99.90;;;;;;4980672;28;20415;-73
2023/12/18 11:15:09;;;;;;;40.20;30.83;;;8.90;99.90;;;;;;4979846;28;20445;-72
2023/12/18 11:17:38;;;;;;;38.00;31.02;;;8.90;99.90;;;;;;4996406;28;20054;-72
2023/12/18 11:20:23;;;;;;;40.67;31.13;;;8.90;99.90;;;;;;4980443;28;20046;-73
2023/12/18 11:22:53;;;;;;;36.10;30.88;;;8.90;99.90;;;;;;4966608;28;20126;-73
2023/12/18 11:25:29;;;;;;;41.85;31.10;;;9.00;99.90;;;;;;4981046;28;20121;-73
2023/12/18 11:28:00;;;;;;;35.83;29.42;;;9.00;99.90;;;;;;4984112;28;20047;-72
2023/12/18 11:30:31;;;;;;;38.20;29.38;;;9.00;99.90;;;;;;4981048;28;20069;-72
2023/12/18 11:32:58;;;;;;;38.63;30.70;;;9.00;99.90;;;;;;4983587;28;20050;-73
2023/12/18 11:35:30;;;;;;;38.10;30.80;;;9.00;99.90;;;;;;4979810;28;20111;-73
2023/12/18 11:38:08;;;;;;;38.08;30.83;;;9.00;99.90;;;;;;4982115;28;20095;-73
2023/12/18 11:40:42;;;;;;;38.00;29.80;;;9.00;99.90;;;;;;4977341;28;20050;-73
2023/12/18 11:43:09;;;;;;;41.35;30.15;;;9.00;99.90;;;;;;4996065;28;20051;-72
2023/12/18 11:45:44;;;;;;;37.75;29.77;;;9.00;99.90;;;;;;4980323;28;20039;-73
2023/12/18 11:48:18;;;;;;;35.13;29.27;;;9.00;99.90;;;;;;4980918;28;20528;-72
2023/12/18 11:50:44;;;;;;;35.08;29.95;;;9.10;99.90;;;;;;4980019;28;20112;-72
2023/12/18 11:53:35;;;;;;;38.17;30.45;;;9.00;99.90;;;;;;4980130;28;20046;-73
2023/12/18 11:56:11;;;;;;;34.92;29.95;;;9.10;99.90;;;;;;5009391;28;20494;-73
2023/12/18 11:58:41;;;;;;;39.13;29.83;;;9.10;99.90;;;;;;5011865;28;20521;-73
2023/12/18 12:01:07;;;;;;;33.30;28.88;;;9.10;99.90;;;;;;4975269;28;20395;-72
2023/12/18 12:03:33;;;;;;;34.95;29.17;;;9.00;99.90;;;;;;5010329;28;20060;-72
2023/12/18 12:06:01;;;;;;;35.85;29.85;;;9.10;99.90;;;;;;4999397;28;20050;-73
2023/12/18 12:08:27;;;;;;;36.97;29.08;;;9.10;99.90;;;;;;4977925;28;20107;-72
2023/12/18 12:10:56;;;;;;;41.47;30.40;;;9.10;99.90;;;;;;4967893;28;20077;-73
2023/12/18 12:13:24;;;;;;;32.72;28.67;;;9.10;99.90;;;;;;4985603;28;20137;-72
2023/12/18 12:16:00;;;;;;;35.47;29.67;;;9.10;99.90;;;;;;4979200;28;20123;-72
2023/12/18 12:18:30;;;;;;;38.28;30.55;;;9.10;99.90;;;;;;5015565;28;20093;-72
2023/12/18 12:20:57;;;;;;;36.88;30.63;;;9.10;99.90;;;;;;5011727;28;20042;-73
2023/12/18 12:23:23;;;;;;;42.70;31.38;;;9.10;99.90;;;;;;4980757;28;20042;-73
2023/12/18 12:25:56;;;;;;;35.28;31.52;;;9.00;99.90;;;;;;4965765;28;20038;-73
2023/12/18 12:28:22;;;;;;;42.17;31.25;;;9.00;99.90;;;;;;4979034;28;20046;-73
2023/12/18 12:30:48;;;;;;;34.67;31.05;;;8.90;99.90;;;;;;4965060;28;20038;-72
2023/12/18 12:33:16;;;;;;;41.95;31.50;;;9.00;99.90;;;;;;4979731;28;20038;-73